Time;durP1;ratioP1;P1;durP2;ratioP2;P2;SDS_P1;SDS_P2;PMS_P1;PMS_P2;Temp;Humidity;BMP_temperature;BMP_pressure;BME280_temperature;BME280_humidity;BME280_pressure;Samples;Min_cycle;Max_cycle;Signal;HPM_P1;HPM_P2
2022/10/14 00:01:05;;;;;;;35.95;22.90;;;11.40;99.90;;;;;;5057338;28;20044;-72
2022/10/14 00:03:32;;;;;;;33.35;21.25;;;11.40;99.90;;;;;;5057838;28;20364;-70
2022/10/14 00:05:57;;;;;;;29.45;20.58;;;11.40;99.90;;;;;;5057314;28;20373;-72
2022/10/14 00:08:24;;;;;;;28.48;20.65;;;11.30;99.90;;;;;;5057411;28;20045;-71
2022/10/14 00:10:50;;;;;;;30.60;20.90;;;11.30;99.90;;;;;;5039551;28;20085;-72
2022/10/14 00:13:16;;;;;;;34.80;21.50;;;11.30;99.90;;;;;;5058155;28;20063;-73
2022/10/14 00:15:42;;;;;;;39.95;23.63;;;11.40;99.90;;;;;;5057373;28;20438;-70
2022/10/14 00:18:09;;;;;;;41.40;26.02;;;11.40;99.90;;;;;;5057226;28;20055;-71
2022/10/14 00:20:35;;;;;;;55.75;26.15;;;11.40;99.90;;;;;;5056690;28;20084;-72
2022/10/14 00:23:00;;;;;;;70.05;27.77;;;11.50;99.90;;;;;;5057235;28;20045;-71
2022/10/14 00:25:27;;;;;;;213.93;36.40;;;11.80;99.90;;;;;;5057340;28;20561;-72
2022/10/14 00:27:53;;;;;;;36.30;22.98;;;11.50;99.90;;;;;;5057236;28;20044;-71
2022/10/14 00:30:18;;;;;;;52.25;24.98;;;11.60;99.90;;;;;;5040104;28;20088;-71
2022/10/14 00:32:44;;;;;;;54.13;25.48;;;11.60;99.90;;;;;;5057090;28;20162;-72
2022/10/14 00:35:09;;;;;;;100.70;30.02;;;11.80;99.90;;;;;;5057018;28;20458;-72
2022/10/14 00:37:35;;;;;;;36.20;21.98;;;11.60;99.90;;;;;;5056961;28;20118;-71
2022/10/14 00:40:01;;;;;;;59.60;23.35;;;11.60;99.90;;;;;;5039112;28;20131;-71
2022/10/14 00:42:26;;;;;;;51.47;23.80;;;11.60;99.90;;;;;;5056623;28;20045;-71
2022/10/14 00:45:04;;;;;;;86.82;24.23;;;11.70;99.90;;;;;;5056751;28;20049;-72
2022/10/14 00:47:31;;;;;;;98.93;26.48;;;11.70;99.90;;;;;;5056909;28;20048;-71
2022/10/14 00:49:59;;;;;;;87.07;24.58;;;11.70;99.90;;;;;;5054914;28;20068;-71
2022/10/14 00:52:24;;;;;;;75.82;22.67;;;11.70;99.90;;;;;;5056710;28;20114;-71
2022/10/14 00:54:59;;;;;;;165.38;31.25;;;11.80;99.90;;;;;;5056465;28;20052;-73
2022/10/14 00:57:25;;;;;;;41.45;21.92;;;11.60;99.90;;;;;;5039104;28;20045;-72
2022/10/14 00:59:55;;;;;;;100.68;26.40;;;11.70;99.90;;;;;;5056968;28;20464;-72
2022/10/14 01:02:21;;;;;;;78.18;23.17;;;11.60;99.90;;;;;;5056678;28;20057;-71
2022/10/14 01:04:46;;;;;;;72.18;22.90;;;11.70;99.90;;;;;;5030813;28;20068;-72
2022/10/14 01:07:31;;;;;;;58.10;20.90;;;11.70;99.90;;;;;;5036722;28;20049;-71
2022/10/14 01:10:15;;;;;;;133.10;26.60;;;11.60;99.90;;;;;;5036158;28;20128;-71
2022/10/14 01:12:53;;;;;;;129.90;25.75;;;11.70;99.90;;;;;;5018615;28;20485;-72
2022/10/14 01:15:48;;;;;;;55.35;21.33;;;11.60;99.90;;;;;;5036491;28;20049;-70
2022/10/14 01:18:51;;;;;;;61.67;19.75;;;11.60;99.90;;;;;;5033167;28;20065;-71
2022/10/14 01:21:46;;;;;;;60.67;19.38;;;11.60;99.90;;;;;;5036069;28;20128;-73
2022/10/14 01:24:29;;;;;;;40.75;16.58;;;11.60;99.90;;;;;;5035909;28;20138;-72
2022/10/14 01:27:13;;;;;;;158.90;27.42;;;11.60;99.90;;;;;;5035762;28;20052;-72
2022/10/14 01:30:04;;;;;;;50.08;19.38;;;11.60;99.90;;;;;;5036106;28;20049;-71
2022/10/14 01:32:47;;;;;;;136.48;24.02;;;11.60;99.90;;;;;;5036179;28;20073;-71
2022/10/14 01:35:33;;;;;;;186.38;26.00;;;11.50;99.90;;;;;;5035612;28;20122;-72
2022/10/14 01:38:23;;;;;;;76.80;19.27;;;11.50;99.90;;;;;;5036476;28;20126;-71
2022/10/14 01:41:00;;;;;;;176.93;25.63;;;11.50;99.90;;;;;;5006530;28;20065;-72
2022/10/14 01:43:28;;;;;;;101.22;21.15;;;11.40;99.90;;;;;;5035746;28;20370;-71
2022/10/14 01:45:55;;;;;;;33.05;16.40;;;11.40;99.90;;;;;;5035834;28;20041;-73
2022/10/14 01:48:25;;;;;;;218.38;27.85;;;11.40;99.90;;;;;;5043889;28;20076;-71
2022/10/14 01:50:53;;;;;;;53.83;16.23;;;11.40;99.90;;;;;;5055805;28;20442;-71
2022/10/14 01:53:24;;;;;;;63.38;19.15;;;11.40;99.90;;;;;;5055569;28;20045;-71
2022/10/14 01:55:54;;;;;;;80.25;22.65;;;11.30;99.90;;;;;;5055041;28;20064;-71
2022/10/14 01:58:24;;;;;;;93.40;18.42;;;11.30;99.90;;;;;;5055430;28;20151;-72
2022/10/14 02:00:50;;;;;;;62.78;17.23;;;11.30;99.90;;;;;;5055217;28;20114;-72
2022/10/14 02:03:16;;;;;;;44.97;14.15;;;11.30;99.90;;;;;;5021482;28;20440;-70
2022/10/14 02:05:57;;;;;;;40.92;14.13;;;11.30;99.90;;;;;;5003925;28;20405;-72
2022/10/14 02:08:22;;;;;;;143.23;20.98;;;11.30;99.90;;;;;;5055693;28;20353;-70
2022/10/14 02:11:11;;;;;;;66.88;15.50;;;11.30;99.90;;;;;;5037541;28;20084;-72
2022/10/14 02:13:57;;;;;;;33.78;14.73;;;11.20;99.90;;;;;;5055362;28;20045;-70
2022/10/14 02:16:32;;;;;;;56.08;16.67;;;11.20;99.90;;;;;;5054602;28;20140;-72
2022/10/14 02:19:23;;;;;;;62.97;15.35;;;11.20;99.90;;;;;;5055656;28;20061;-72
2022/10/14 02:22:12;;;;;;;101.75;17.13;;;11.20;99.90;;;;;;5055078;28;20343;-73
2022/10/14 02:24:50;;;;;;;176.18;22.35;;;11.10;99.90;;;;;;5054869;28;20134;-72
2022/10/14 02:27:18;;;;;;;70.03;15.38;;;11.10;99.90;;;;;;5055230;28;20037;-71
2022/10/14 02:29:46;;;;;;;95.28;17.27;;;11.10;99.90;;;;;;5037606;28;20454;-74
2022/10/14 02:32:15;;;;;;;38.30;12.73;;;11.10;99.90;;;;;;5055031;28;20488;-72
2022/10/14 02:34:45;;;;;;;52.28;13.02;;;11.10;99.90;;;;;;5036957;28;20175;-72
2022/10/14 02:37:12;;;;;;;50.83;12.55;;;11.00;99.90;;;;;;5054710;28;20088;-71
2022/10/14 02:39:47;;;;;;;75.15;13.52;;;11.00;99.90;;;;;;5054312;28;20075;-71
2022/10/14 02:42:13;;;;;;;71.13;13.07;;;11.00;99.90;;;;;;5054681;28;20053;-71
2022/10/14 02:44:52;;;;;;;42.75;11.88;;;11.00;99.90;;;;;;5055116;28;20365;-72
2022/10/14 02:47:17;;;;;;;150.60;19.98;;;11.00;99.90;;;;;;5054817;28;20056;-70
2022/10/14 02:49:43;;;;;;;56.20;12.35;;;11.00;99.90;;;;;;5054602;28;20049;-72
2022/10/14 02:52:08;;;;;;;54.55;12.05;;;11.00;99.90;;;;;;5055131;28;20051;-72
2022/10/14 02:54:34;;;;;;;70.35;13.02;;;11.00;99.90;;;;;;5054606;28;20037;-71
2022/10/14 02:57:00;;;;;;;59.67;13.30;;;10.90;99.90;;;;;;5055357;28;20110;-72
2022/10/14 02:59:25;;;;;;;61.05;14.43;;;11.10;99.90;;;;;;5054813;28;20091;-72
2022/10/14 03:01:51;;;;;;;37.97;11.43;;;10.90;99.90;;;;;;5036923;28;20467;-71
2022/10/14 03:04:16;;;;;;;39.42;12.27;;;10.90;99.90;;;;;;5055047;28;20052;-71
2022/10/14 03:06:42;;;;;;;34.08;14.68;;;10.90;99.90;;;;;;5054876;28;20095;-71
2022/10/14 03:09:07;;;;;;;62.53;13.15;;;10.90;99.90;;;;;;5054190;28;20460;-73
2022/10/14 03:11:33;;;;;;;35.40;12.85;;;11.00;99.90;;;;;;5010862;28;20373;-71
2022/10/14 03:13:58;;;;;;;23.30;11.43;;;11.00;99.90;;;;;;5036482;28;20045;-71
2022/10/14 03:16:24;;;;;;;62.10;14.27;;;10.90;99.90;;;;;;5038804;28;20050;-73
2022/10/14 03:18:49;;;;;;;51.78;12.65;;;11.00;99.90;;;;;;5038383;28;20041;-71
2022/10/14 03:21:15;;;;;;;31.48;12.77;;;11.00;99.90;;;;;;5038764;28;20053;-72
2022/10/14 03:23:41;;;;;;;51.25;13.25;;;10.90;99.90;;;;;;5038285;28;20049;-74
2022/10/14 03:26:07;;;;;;;88.45;15.93;;;11.00;99.90;;;;;;5058008;28;20062;-71
2022/10/14 03:28:32;;;;;;;52.40;12.98;;;11.00;99.90;;;;;;5057523;28;20045;-72
2022/10/14 03:30:58;;;;;;;25.67;11.40;;;11.00;99.90;;;;;;5058352;28;20053;-70
2022/10/14 03:33:24;;;;;;;21.63;10.63;;;11.00;99.90;;;;;;5040341;28;20063;-71
2022/10/14 03:35:49;;;;;;;46.22;13.93;;;11.00;99.90;;;;;;5040920;28;20045;-71
2022/10/14 03:38:15;;;;;;;81.78;14.35;;;11.00;99.90;;;;;;5041364;28;20045;-72
2022/10/14 03:40:41;;;;;;;46.20;12.30;;;11.00;99.90;;;;;;5058408;28;20051;-70
2022/10/14 03:43:06;;;;;;;55.47;13.98;;;11.00;99.90;;;;;;5057192;28;20457;-71
2022/10/14 03:45:32;;;;;;;38.90;13.40;;;11.00;99.90;;;;;;5057706;28;20049;-73
2022/10/14 03:47:57;;;;;;;63.17;15.00;;;11.00;99.90;;;;;;5058061;28;20060;-72
2022/10/14 03:50:23;;;;;;;19.35;10.52;;;11.00;99.90;;;;;;5057623;28;20107;-72
2022/10/14 03:52:50;;;;;;;40.83;12.88;;;11.00;99.90;;;;;;5042158;28;20098;-71
2022/10/14 03:55:17;;;;;;;35.70;12.88;;;11.00;99.90;;;;;;5059322;28;20094;-71
2022/10/14 03:57:42;;;;;;;26.88;10.70;;;11.00;99.90;;;;;;5057064;28;20362;-71
2022/10/14 04:00:08;;;;;;;30.88;10.35;;;11.00;99.90;;;;;;5057454;28;20041;-70
2022/10/14 04:02:36;;;;;;;29.92;11.68;;;11.00;99.90;;;;;;5062384;28;20059;-73
2022/10/14 04:05:05;;;;;;;30.58;11.38;;;11.10;99.90;;;;;;5058083;28;20064;-71
2022/10/14 04:07:31;;;;;;;41.63;12.27;;;11.10;99.90;;;;;;5057398;28;20037;-71
2022/10/14 04:09:57;;;;;;;33.80;12.35;;;11.10;99.90;;;;;;5057227;28;20103;-70
2022/10/14 04:12:22;;;;;;;26.67;11.70;;;11.10;99.90;;;;;;5057269;28;20037;-71
2022/10/14 04:14:48;;;;;;;34.00;11.55;;;11.10;99.90;;;;;;5057858;28;20099;-72
2022/10/14 04:17:14;;;;;;;30.00;11.40;;;11.10;99.90;;;;;;5045391;28;20047;-70
2022/10/14 04:19:39;;;;;;;26.67;10.77;;;11.00;99.90;;;;;;5056850;28;20045;-72
2022/10/14 04:22:05;;;;;;;28.25;11.68;;;11.00;99.90;;;;;;5057273;28;20132;-70
2022/10/14 04:24:31;;;;;;;34.22;11.27;;;11.00;99.90;;;;;;5056945;28;20454;-71
2022/10/14 04:26:57;;;;;;;31.13;11.50;;;10.90;99.90;;;;;;5057298;28;20106;-71
2022/10/14 04:29:22;;;;;;;37.80;11.23;;;10.90;99.90;;;;;;5057061;28;20132;-72
2022/10/14 04:31:48;;;;;;;44.15;12.57;;;10.90;99.90;;;;;;5057650;28;20060;-71
2022/10/14 04:34:13;;;;;;;53.67;14.57;;;10.80;99.90;;;;;;5056323;28;20045;-71
2022/10/14 04:36:39;;;;;;;28.23;12.00;;;10.90;99.90;;;;;;5056679;28;20049;-70
2022/10/14 04:39:05;;;;;;;41.88;12.00;;;11.00;99.90;;;;;;5056956;28;20083;-72
2022/10/14 04:41:31;;;;;;;25.95;10.73;;;10.80;99.90;;;;;;5039305;28;20052;-71
2022/10/14 04:43:57;;;;;;;43.17;12.93;;;10.80;99.90;;;;;;5038978;28;20049;-71
2022/10/14 04:46:22;;;;;;;31.45;11.23;;;10.90;99.90;;;;;;5056807;28;20388;-71
2022/10/14 04:48:49;;;;;;;33.70;12.07;;;10.90;99.90;;;;;;5038614;28;20060;-72
2022/10/14 04:51:14;;;;;;;41.17;11.95;;;10.80;99.90;;;;;;5057061;28;20128;-70
2022/10/14 04:53:40;;;;;;;40.22;12.82;;;10.80;99.90;;;;;;5056441;28;20441;-72
2022/10/14 04:56:06;;;;;;;39.63;12.88;;;10.80;99.90;;;;;;5056605;28;20116;-70
2022/10/14 04:58:31;;;;;;;25.65;12.35;;;10.80;99.90;;;;;;5056551;28;20425;-72
2022/10/14 05:00:57;;;;;;;48.80;13.55;;;10.80;99.90;;;;;;5056179;28;20068;-71
2022/10/14 05:03:23;;;;;;;58.65;16.00;;;10.90;99.90;;;;;;5056565;28;20056;-71
2022/10/14 05:05:50;;;;;;;25.88;10.13;;;10.80;99.90;;;;;;5038947;28;20037;-71
2022/10/14 05:08:16;;;;;;;60.28;14.57;;;10.80;99.90;;;;;;5056943;28;20357;-70
2022/10/14 05:10:41;;;;;;;39.00;13.05;;;10.80;99.90;;;;;;5056434;28;20131;-69
2022/10/14 05:13:07;;;;;;;47.70;13.52;;;10.80;99.90;;;;;;5056550;28;20048;-70
2022/10/14 05:15:33;;;;;;;33.33;13.13;;;10.90;99.90;;;;;;5056390;28;20045;-71
2022/10/14 05:17:59;;;;;;;45.75;14.75;;;10.90;99.90;;;;;;5055943;28;20365;-73
2022/10/14 05:20:25;;;;;;;72.72;15.68;;;10.90;99.90;;;;;;5038233;28;20128;-71
2022/10/14 05:22:51;;;;;;;32.65;12.18;;;10.90;99.90;;;;;;5056588;28;20053;-72
2022/10/14 05:25:17;;;;;;;47.08;14.93;;;10.90;99.90;;;;;;5055871;28;20044;-72
2022/10/14 05:27:42;;;;;;;54.28;16.63;;;10.90;99.90;;;;;;5056034;28;20048;-72
2022/10/14 05:30:08;;;;;;;46.53;15.82;;;10.80;99.90;;;;;;5056064;28;20056;-72
2022/10/14 05:32:34;;;;;;;48.03;16.92;;;10.80;99.90;;;;;;5055673;28;20175;-69
2022/10/14 05:34:59;;;;;;;51.38;16.63;;;10.90;99.90;;;;;;5054749;28;20467;-68
2022/10/14 05:37:25;;;;;;;46.13;16.08;;;10.80;99.90;;;;;;5054866;28;20045;-70
2022/10/14 05:39:51;;;;;;;51.45;14.98;;;10.90;99.90;;;;;;5055812;28;20465;-70
2022/10/14 05:42:16;;;;;;;69.13;19.80;;;10.90;99.90;;;;;;5038750;28;20453;-70
2022/10/14 05:44:42;;;;;;;41.15;16.50;;;10.90;99.90;;;;;;5055636;28;20061;-71
2022/10/14 05:47:09;;;;;;;40.05;16.20;;;10.90;99.90;;;;;;5055471;28;20041;-73
2022/10/14 05:49:35;;;;;;;83.22;19.83;;;10.90;99.90;;;;;;5055167;28;20072;-71
2022/10/14 05:52:00;;;;;;;73.85;19.95;;;10.90;99.90;;;;;;5055765;28;20033;-70
2022/10/14 05:54:26;;;;;;;43.80;17.73;;;10.90;99.90;;;;;;5055708;28;20052;-70
2022/10/14 05:56:52;;;;;;;80.93;20.42;;;10.90;99.90;;;;;;5055437;28;20132;-73
2022/10/14 05:59:18;;;;;;;47.40;16.88;;;11.00;99.90;;;;;;5055209;28;20045;-71
2022/10/14 06:01:43;;;;;;;37.08;16.95;;;11.00;99.90;;;;;;5054836;28;20450;-71
2022/10/14 06:04:19;;;;;;;55.53;19.90;;;11.10;99.90;;;;;;5055261;28;20047;-71
2022/10/14 06:06:44;;;;;;;40.38;18.63;;;11.00;99.90;;;;;;5054592;28;20049;-72
2022/10/14 06:09:10;;;;;;;56.38;20.13;;;11.00;99.90;;;;;;5055229;28;20571;-72
2022/10/14 06:11:36;;;;;;;89.40;22.10;;;11.00;99.90;;;;;;5055269;28;20477;-70
2022/10/14 06:14:01;;;;;;;45.88;17.83;;;11.10;99.90;;;;;;5037482;28;20369;-71
2022/10/14 06:16:27;;;;;;;79.82;22.63;;;11.10;99.90;;;;;;5055446;28;20145;-71
2022/10/14 06:18:53;;;;;;;66.93;21.77;;;11.00;99.90;;;;;;5054878;28;20049;-70
2022/10/14 06:21:18;;;;;;;59.67;19.65;;;11.20;99.90;;;;;;5054657;28;20051;-71
2022/10/14 06:23:44;;;;;;;81.32;21.55;;;11.10;99.90;;;;;;5055243;28;20045;-71
2022/10/14 06:26:09;;;;;;;82.03;19.55;;;11.10;99.90;;;;;;5055076;28;20462;-70
2022/10/14 06:28:36;;;;;;;106.07;24.63;;;11.20;99.90;;;;;;5055185;28;20457;-72
2022/10/14 06:31:02;;;;;;;54.15;20.02;;;11.10;99.90;;;;;;5054602;28;20064;-72
2022/10/14 06:33:28;;;;;;;93.68;23.65;;;11.10;99.90;;;;;;5055665;28;20107;-72
2022/10/14 06:35:54;;;;;;;70.72;20.80;;;11.10;99.90;;;;;;5036685;28;20052;-72
2022/10/14 06:38:21;;;;;;;57.95;21.33;;;11.10;99.90;;;;;;5055020;28;20095;-71
2022/10/14 06:40:50;;;;;;;83.50;24.85;;;11.10;99.90;;;;;;5054939;28;20444;-70
2022/10/14 06:43:16;;;;;;;64.22;22.63;;;11.10;99.90;;;;;;5020939;28;20132;-71
2022/10/14 06:45:41;;;;;;;58.78;21.20;;;11.10;99.90;;;;;;5054691;28;20425;-71
2022/10/14 06:48:07;;;;;;;56.35;21.75;;;11.30;99.90;;;;;;5055379;28;20049;-73
2022/10/14 06:50:33;;;;;;;74.43;23.40;;;11.20;99.90;;;;;;5058513;28;20380;-70
2022/10/14 06:52:58;;;;;;;64.45;22.33;;;11.20;99.90;;;;;;5059511;28;20120;-70
2022/10/14 06:55:24;;;;;;;61.53;21.48;;;11.20;99.90;;;;;;5058979;28;20044;-70
2022/10/14 06:57:49;;;;;;;64.32;21.92;;;11.30;99.90;;;;;;5041260;28;20045;-71
2022/10/14 07:00:15;;;;;;;54.85;21.20;;;11.30;99.90;;;;;;5059053;28;20087;-72
2022/10/14 07:02:41;;;;;;;55.05;19.95;;;11.30;99.90;;;;;;5058542;28;20049;-71
2022/10/14 07:05:07;;;;;;;66.97;23.92;;;11.30;99.90;;;;;;5058377;28;20051;-71
2022/10/14 07:07:33;;;;;;;86.30;22.48;;;11.40;99.90;;;;;;5058874;28;20045;-71
2022/10/14 07:09:59;;;;;;;52.45;21.85;;;11.40;99.90;;;;;;5059295;28;20037;-72
2022/10/14 07:12:25;;;;;;;61.08;23.05;;;11.50;99.90;;;;;;5058402;28;20045;-72
2022/10/14 07:14:51;;;;;;;64.22;23.08;;;11.50;99.90;;;;;;5058592;28;20527;-71
2022/10/14 07:17:16;;;;;;;54.05;21.60;;;11.50;99.90;;;;;;5058062;28;20073;-70
2022/10/14 07:19:42;;;;;;;52.70;24.17;;;11.50;99.90;;;;;;5058303;28;20048;-72
2022/10/14 07:22:08;;;;;;;57.08;24.15;;;11.60;99.90;;;;;;5058294;28;20048;-71
2022/10/14 07:24:33;;;;;;;51.15;23.48;;;11.70;99.90;;;;;;5058380;28;20037;-71
2022/10/14 07:27:00;;;;;;;58.47;25.23;;;11.60;99.90;;;;;;5058375;28;20579;-72
2022/10/14 07:29:26;;;;;;;56.45;26.05;;;11.70;99.90;;;;;;5058531;28;20045;-70
2022/10/14 07:31:52;;;;;;;51.03;23.73;;;11.70;99.90;;;;;;5058315;28;20511;-71
2022/10/14 07:34:17;;;;;;;54.33;25.48;;;11.80;99.90;;;;;;5031897;28;20068;-72
2022/10/14 07:36:43;;;;;;;59.95;25.88;;;11.80;99.90;;;;;;5038156;28;20100;-70
2022/10/14 07:39:09;;;;;;;44.75;23.45;;;11.90;99.90;;;;;;5038390;28;20133;-74
2022/10/14 07:41:35;;;;;;;52.28;24.38;;;12.00;99.90;;;;;;5037904;28;20541;-71
2022/10/14 07:44:05;;;;;;;54.75;24.55;;;12.00;99.90;;;;;;5020897;28;20057;-71
2022/10/14 07:46:32;;;;;;;46.35;23.92;;;12.10;99.90;;;;;;5020284;28;20066;-74
2022/10/14 07:49:05;;;;;;;45.85;23.20;;;12.00;99.90;;;;;;5028057;28;20045;-71
2022/10/14 07:51:32;;;;;;;46.78;23.48;;;12.00;99.90;;;;;;5057964;28;20049;-71
2022/10/14 07:53:59;;;;;;;49.55;23.35;;;12.00;99.90;;;;;;5040479;28;20335;-72
2022/10/14 07:56:26;;;;;;;43.85;22.45;;;12.10;99.90;;;;;;5057551;28;20037;-71
2022/10/14 07:58:52;;;;;;;36.72;22.58;;;12.10;99.90;;;;;;5056839;28;20076;-74
2022/10/14 08:01:18;;;;;;;38.33;21.85;;;12.10;99.90;;;;;;5057942;28;20080;-73
2022/10/14 08:03:45;;;;;;;44.58;24.58;;;12.10;99.90;;;;;;5039849;28;20092;-72
2022/10/14 08:06:11;;;;;;;44.30;24.35;;;12.20;99.90;;;;;;5039906;28;20096;-72
2022/10/14 08:08:38;;;;;;;42.13;23.20;;;12.10;99.90;;;;;;5058094;28;20064;-71
2022/10/14 08:11:12;;;;;;;45.13;22.33;;;12.20;99.90;;;;;;5057162;28;20123;-71
2022/10/14 08:13:39;;;;;;;42.58;22.13;;;12.20;99.90;;;;;;5057372;28;20060;-71
2022/10/14 08:16:17;;;;;;;40.83;21.88;;;12.30;99.90;;;;;;5057228;28;20101;-71
2022/10/14 08:18:43;;;;;;;36.92;21.25;;;12.40;99.90;;;;;;5037424;28;20034;-70
2022/10/14 08:21:09;;;;;;;49.25;23.58;;;12.40;99.90;;;;;;5037140;28;20041;-70
2022/10/14 08:23:34;;;;;;;38.95;23.05;;;12.40;99.90;;;;;;5037275;28;20049;-71
2022/10/14 08:26:00;;;;;;;31.33;19.58;;;12.50;99.90;;;;;;5037470;28;20473;-71
2022/10/14 08:28:26;;;;;;;38.78;21.48;;;12.50;99.90;;;;;;5037183;28;20116;-71
2022/10/14 08:30:52;;;;;;;34.22;21.20;;;12.60;99.90;;;;;;5038520;28;20048;-71
2022/10/14 08:33:18;;;;;;;38.20;22.95;;;12.60;99.90;;;;;;5057174;28;20140;-72
2022/10/14 08:35:43;;;;;;;34.10;21.15;;;12.70;99.90;;;;;;5056923;28;20056;-72
2022/10/14 08:38:10;;;;;;;37.83;22.25;;;12.70;99.90;;;;;;5056815;28;20079;-70
2022/10/14 08:40:54;;;;;;;34.70;20.33;;;12.70;99.90;;;;;;5056653;28;20056;-72
2022/10/14 08:43:22;;;;;;;29.98;19.58;;;12.70;99.90;;;;;;5057062;28;20132;-71
2022/10/14 08:45:53;;;;;;;35.53;21.83;;;12.80;99.90;;;;;;5056596;28;20045;-72
2022/10/14 08:48:23;;;;;;;31.13;18.80;;;12.80;99.90;;;;;;5056693;28;20044;-72
2022/10/14 08:51:05;;;;;;;40.40;20.95;;;12.80;99.90;;;;;;5057029;28;20044;-72
2022/10/14 08:53:42;;;;;;;32.20;20.00;;;12.90;99.90;;;;;;5056692;28;20461;-72
2022/10/14 08:56:10;;;;;;;32.35;19.98;;;12.90;99.90;;;;;;5056680;28;20052;-72
2022/10/14 08:58:42;;;;;;;31.52;20.17;;;12.90;99.90;;;;;;5056259;28;20037;-71
2022/10/14 09:01:31;;;;;;;32.13;19.13;;;12.90;99.90;;;;;;5055747;28;20063;-70
2022/10/14 09:04:01;;;;;;;30.83;18.58;;;13.00;99.90;;;;;;5056974;28;20144;-72
2022/10/14 09:06:30;;;;;;;31.88;20.55;;;13.00;99.90;;;;;;5056554;28;20041;-70
2022/10/14 09:09:17;;;;;;;30.38;19.20;;;13.00;99.90;;;;;;5055926;28;20099;-71
2022/10/14 09:11:47;;;;;;;32.72;20.27;;;13.10;99.90;;;;;;5055249;28;20091;-71
2022/10/14 09:14:19;;;;;;;32.83;19.77;;;13.10;99.90;;;;;;5055883;28;20088;-71
2022/10/14 09:16:48;;;;;;;30.92;19.65;;;13.10;99.90;;;;;;5038447;28;20400;-72
2022/10/14 09:19:21;;;;;;;32.03;20.25;;;13.10;99.90;;;;;;5056051;28;20331;-73
2022/10/14 09:21:52;;;;;;;33.70;20.85;;;13.30;99.90;;;;;;5055987;28;20353;-72
2022/10/14 09:24:25;;;;;;;35.40;21.98;;;13.40;99.90;;;;;;5055801;28;20045;-71
2022/10/14 09:27:03;;;;;;;33.03;21.13;;;13.50;99.90;;;;;;5056177;28;20056;-71
2022/10/14 09:29:54;;;;;;;32.75;21.73;;;13.50;99.90;;;;;;5055898;28;20041;-69
2022/10/14 09:32:26;;;;;;;30.55;20.35;;;13.60;99.90;;;;;;5056284;28;20124;-71
2022/10/14 09:34:52;;;;;;;31.05;19.50;;;13.50;99.90;;;;;;5054959;28;20137;-72
2022/10/14 09:37:28;;;;;;;36.67;22.08;;;13.60;99.90;;;;;;5055534;28;20111;-71
2022/10/14 09:39:58;;;;;;;31.17;19.83;;;13.60;99.90;;;;;;5038556;28;20118;-74
2022/10/14 09:42:54;;;;;;;33.13;22.58;;;13.60;99.90;;;;;;5055637;28;20045;-73
2022/10/14 09:45:21;;;;;;;47.83;19.50;;;13.50;99.90;;;;;;5011875;28;20052;-72
2022/10/14 09:48:02;;;;;;;35.50;21.27;;;13.50;99.90;;;;;;5055101;28;20045;-72
2022/10/14 09:50:28;;;;;;;35.00;21.10;;;13.60;99.90;;;;;;5038062;28;20052;-72
2022/10/14 09:53:00;;;;;;;28.75;19.40;;;13.60;99.90;;;;;;5056216;28;20051;-71
2022/10/14 09:55:26;;;;;;;34.83;20.10;;;13.70;99.90;;;;;;5037904;28;20076;-72
2022/10/14 09:58:02;;;;;;;36.95;21.92;;;13.60;99.90;;;;;;5055377;28;20091;-72
2022/10/14 10:00:30;;;;;;;33.13;21.05;;;13.70;99.90;;;;;;5054873;28;20049;-71
2022/10/14 10:02:56;;;;;;;30.33;19.92;;;13.70;99.90;;;;;;5054593;28;20037;-73
2022/10/14 10:05:34;;;;;;;32.40;19.52;;;13.70;99.90;;;;;;5055370;28;20071;-71
2022/10/14 10:08:04;;;;;;;34.10;22.40;;;13.90;99.90;;;;;;5055334;28;20376;-71
2022/10/14 10:10:34;;;;;;;33.95;20.52;;;13.80;99.90;;;;;;5055188;28;20059;-73
2022/10/14 10:13:00;;;;;;;33.95;21.38;;;13.80;99.90;;;;;;5055185;28;20076;-73
2022/10/14 10:15:26;;;;;;;37.63;21.17;;;13.80;99.90;;;;;;5055490;28;20094;-71
2022/10/14 10:17:53;;;;;;;33.22;20.13;;;13.70;99.90;;;;;;5055432;28;20115;-72
2022/10/14 10:20:27;;;;;;;36.10;22.00;;;13.70;99.90;;;;;;5054802;28;20056;-71
2022/10/14 10:22:56;;;;;;;32.25;18.25;;;13.70;99.90;;;;;;5054623;28;20079;-72
2022/10/14 10:25:25;;;;;;;35.90;20.10;;;13.70;99.90;;;;;;5055169;28;20045;-72
2022/10/14 10:27:51;;;;;;;38.60;20.35;;;13.80;99.90;;;;;;5055172;28;20053;-70
2022/10/14 10:30:17;;;;;;;32.15;17.63;;;13.80;99.90;;;;;;5055173;28;20044;-71
2022/10/14 10:32:53;;;;;;;31.15;17.58;;;13.80;99.90;;;;;;5054444;28;20041;-70
2022/10/14 10:35:32;;;;;;;31.90;17.80;;;13.90;99.90;;;;;;5037040;28;20111;-71
2022/10/14 10:38:24;;;;;;;28.77;17.15;;;14.00;99.90;;;;;;5054862;28;20049;-71
2022/10/14 10:41:24;;;;;;;26.48;15.50;;;14.00;99.90;;;;;;5037432;28;20103;-72
2022/10/14 10:44:21;;;;;;;31.13;15.05;;;14.00;99.90;;;;;;5054974;28;20361;-72
2022/10/14 10:46:53;;;;;;;29.42;17.08;;;14.00;99.90;;;;;;5054816;28;20342;-71
2022/10/14 10:49:40;;;;;;;27.92;16.33;;;13.80;99.90;;;;;;5054956;28;20066;-71
2022/10/14 10:52:21;;;;;;;25.98;14.88;;;13.90;99.90;;;;;;5034778;28;20068;-72
2022/10/14 10:54:56;;;;;;;23.13;14.05;;;13.90;99.90;;;;;;5034801;28;20045;-72
2022/10/14 10:57:44;;;;;;;25.23;14.60;;;14.10;99.90;;;;;;5017650;28;20088;-73
2022/10/14 11:00:16;;;;;;;23.98;14.23;;;13.80;99.90;;;;;;5034931;28;20103;-71
2022/10/14 11:02:55;;;;;;;29.58;14.50;;;13.80;99.90;;;;;;5017422;28;20478;-71
2022/10/14 11:12:01;;;;;;;27.90;14.55;;;13.80;99.90;;;;;;5043317;28;20053;-72
2022/10/14 11:12:29;;;;;;;25.35;14.50;;;13.80;99.90;;;;;;5054624;28;20159;-70
2022/10/14 11:15:14;;;;;;;28.75;15.52;;;13.80;99.90;;;;;;5054543;28;20055;-71
2022/10/14 11:18:15;;;;;;;27.27;15.18;;;13.80;99.90;;;;;;5054857;28;20096;-71
2022/10/14 11:21:00;;;;;;;30.40;16.83;;;13.80;99.90;;;;;;5054113;28;20128;-71
2022/10/14 11:23:47;;;;;;;30.98;17.35;;;13.80;99.90;;;;;;5054784;28;20045;-72
2022/10/14 11:26:13;;;;;;;38.03;17.65;;;13.80;99.90;;;;;;5054606;28;20056;-73
2022/10/14 11:28:51;;;;;;;35.90;18.25;;;13.80;99.90;;;;;;5037153;28;20132;-72
2022/10/14 11:31:28;;;;;;;37.70;17.80;;;13.70;99.90;;;;;;5054698;28;20045;-71
2022/10/14 11:34:06;;;;;;;35.70;18.73;;;13.70;99.90;;;;;;5054207;28;20041;-71
2022/10/14 11:36:50;;;;;;;42.42;19.05;;;13.80;99.90;;;;;;5057738;28;20085;-71
2022/10/14 11:39:31;;;;;;;36.58;16.80;;;13.70;99.90;;;;;;5058304;28;20387;-70
2022/10/14 11:42:17;;;;;;;46.47;19.27;;;13.80;99.90;;;;;;5057748;28;20057;-73
2022/10/14 11:44:43;;;;;;;44.60;18.33;;;13.80;99.90;;;;;;5040402;28;20057;-73
2022/10/14 11:47:21;;;;;;;33.40;16.73;;;13.90;99.90;;;;;;5040227;28;20461;-72
2022/10/14 11:49:54;;;;;;;40.10;17.90;;;13.90;99.90;;;;;;5057539;28;20510;-71
2022/10/14 11:52:31;;;;;;;;;;;14.00;99.90;;;;;;5057929;28;20044;-74
2022/10/14 11:55:22;;;;;;;32.15;15.60;;;14.00;99.90;;;;;;5057847;28;19931;-71
2022/10/14 11:57:57;;;;;;;30.38;15.70;;;14.00;99.90;;;;;;5057851;28;20064;-73
2022/10/14 12:00:28;;;;;;;27.20;15.88;;;14.00;99.90;;;;;;5039856;28;20045;-73
2022/10/14 12:03:38;;;;;;;31.65;15.18;;;14.10;99.90;;;;;;5057864;28;20045;-71
2022/10/14 12:06:16;;;;;;;28.55;14.73;;;14.00;99.90;;;;;;5040427;28;20107;-71
2022/10/14 12:08:57;;;;;;;26.92;13.85;;;14.00;99.90;;;;;;5057447;28;20119;-71
2022/10/14 12:11:38;;;;;;;25.67;13.85;;;14.00;99.90;;;;;;5057171;28;20045;-74
2022/10/14 12:14:12;;;;;;;34.42;15.93;;;14.00;99.90;;;;;;5039814;28;20445;-72
2022/10/14 12:16:41;;;;;;;32.22;15.38;;;13.90;99.90;;;;;;5057403;28;20126;-72
2022/10/14 12:19:11;;;;;;;28.60;15.98;;;14.00;99.90;;;;;;5039770;28;20098;-72
2022/10/14 12:22:01;;;;;;;31.65;15.95;;;14.10;99.90;;;;;;5023283;28;20055;-72
2022/10/14 12:24:33;;;;;;;28.77;14.77;;;14.10;99.90;;;;;;5056855;28;20037;-72
2022/10/14 12:27:04;;;;;;;32.75;15.23;;;14.10;99.90;;;;;;5057255;28;20412;-70
2022/10/14 12:29:45;;;;;;;27.05;13.98;;;14.10;99.90;;;;;;5057073;28;20041;-72
2022/10/14 12:32:18;;;;;;;31.60;16.58;;;14.10;99.90;;;;;;5056916;28;20037;-73
2022/10/14 12:34:46;;;;;;;;;;;14.00;99.90;;;;;;5057461;28;20408;-71
2022/10/14 12:37:23;;;;;;;34.38;16.58;;;13.90;99.90;;;;;;5057026;28;19935;-72
2022/10/14 12:40:12;;;;;;;32.80;17.17;;;14.00;99.90;;;;;;5057056;28;20052;-73
2022/10/14 12:42:56;;;;;;;35.95;18.23;;;13.90;99.90;;;;;;5021862;28;20058;-73
2022/10/14 12:45:28;;;;;;;32.83;17.38;;;14.00;99.90;;;;;;5036774;28;20509;-73
2022/10/14 12:48:21;;;;;;;35.40;18.17;;;14.00;99.90;;;;;;5037328;28;20099;-73
2022/10/14 12:50:50;;;;;;;34.13;19.45;;;14.00;99.90;;;;;;5036471;28;20045;-72